createdAt,value
2019-05-02T00:02:47.934Z,8.13
2019-05-02T00:08:12.366Z,7.98
2019-05-02T00:13:36.739Z,7.79
2019-05-02T00:19:01.168Z,7.70
2019-05-02T00:24:25.681Z,7.72
2019-05-02T00:29:53.928Z,7.82
2019-05-02T00:35:16.027Z,7.78
2019-05-02T00:40:40.841Z,7.62
2019-05-02T00:46:05.479Z,7.59
2019-05-02T00:51:30.014Z,7.47
2019-05-02T00:56:54.963Z,7.45
2019-05-02T01:02:35.901Z,7.49
2019-05-02T01:08:01.010Z,7.56
2019-05-02T01:13:24.671Z,7.70
2019-05-02T01:18:49.999Z,7.81
2019-05-02T01:24:14.466Z,7.88
2019-05-02T01:29:46.183Z,7.96
2019-05-02T01:35:15.093Z,8.01
2019-05-02T01:40:39.529Z,8.02
2019-05-02T01:46:03.217Z,8.06
2019-05-02T01:51:27.661Z,8.02
2019-05-02T01:56:51.300Z,8.00
2019-05-02T02:02:16.044Z,8.10
2019-05-02T02:07:40.462Z,8.12
2019-05-02T02:13:05.431Z,8.13
2019-05-02T02:18:32.000Z,8.16
2019-05-02T02:24:04.241Z,8.20
2019-05-02T02:29:27.982Z,8.20
2019-05-02T02:34:52.774Z,8.04
2019-05-02T02:40:17.836Z,8.02
2019-05-02T02:46:00.317Z,7.81
2019-05-02T02:51:26.278Z,7.74
2019-05-02T02:56:50.102Z,7.75
2019-05-02T03:02:14.847Z,7.79
2019-05-02T03:07:39.336Z,7.70
2019-05-02T03:13:24.167Z,7.75
2019-05-02T03:18:47.813Z,7.71
2019-05-02T03:24:11.968Z,7.67
2019-05-02T03:29:43.824Z,7.67
2019-05-02T03:35:02.611Z,7.72
2019-05-02T03:40:32.252Z,7.64
2019-05-02T03:45:53.128Z,7.60
2019-05-02T03:51:21.298Z,7.57
2019-05-02T03:56:44.632Z,7.52
2019-05-02T04:02:14.244Z,7.51
2019-05-02T04:07:40.317Z,7.57
2019-05-02T04:13:00.636Z,7.56
2019-05-02T04:18:26.055Z,7.58
2019-05-02T04:23:51.273Z,7.58
2019-05-02T04:29:17.427Z,7.71
2019-05-02T04:34:42.074Z,7.80
2019-05-02T04:40:11.253Z,7.80
2019-05-02T04:45:47.286Z,7.85
2019-05-02T04:51:08.701Z,7.84
2019-05-02T04:56:24.379Z,7.81
2019-05-02T05:01:54.355Z,7.87
2019-05-02T05:07:14.837Z,7.86
2019-05-02T05:12:41.814Z,7.98
2019-05-02T05:18:12.693Z,8.09
2019-05-02T05:23:59.578Z,8.01
2019-05-02T05:29:23.138Z,8.20
2019-05-02T05:34:44.208Z,8.21
2019-05-02T05:40:08.485Z,8.23
2019-05-02T05:45:33.122Z,8.26
2019-05-02T05:50:58.024Z,8.35
2019-05-02T05:56:23.265Z,8.21
2019-05-02T06:01:51.424Z,8.20
2019-05-02T06:07:13.390Z,8.15
2019-05-02T06:12:37.463Z,8.50
2019-05-02T06:18:04.855Z,8.33
2019-05-02T06:23:31.083Z,8.39
2019-05-02T06:28:52.731Z,8.34
2019-05-02T06:34:16.619Z,8.68
2019-05-02T06:39:40.564Z,8.74
2019-05-02T06:45:05.026Z,8.66
2019-05-02T06:50:33.346Z,8.82
2019-05-02T06:55:55.529Z,8.93
2019-05-02T07:01:21.427Z,9.13
2019-05-02T07:06:57.195Z,9.13
2019-05-02T07:12:14.808Z,9.17
2019-05-02T07:17:41.680Z,9.42
2019-05-02T07:23:10.701Z,9.42
2019-05-02T07:28:31.951Z,9.32
2019-05-02T07:33:55.879Z,9.31
2019-05-02T07:39:19.702Z,9.23
2019-05-02T07:44:44.480Z,9.28
2019-05-02T07:50:10.828Z,9.27
2019-05-02T07:55:40.840Z,9.30
2019-05-02T08:01:02.109Z,9.27
2019-05-02T08:06:35.030Z,9.34
2019-05-02T08:11:52.704Z,9.46
2019-05-02T08:17:19.273Z,9.54
2019-05-02T08:22:48.822Z,9.64
2019-05-02T08:28:18.543Z,9.67
2019-05-02T08:33:42.966Z,9.75
2019-05-02T08:39:08.537Z,10.10
2019-05-02T08:44:32.460Z,10.13
2019-05-02T08:49:56.753Z,10.37
2019-05-02T08:55:21.438Z,10.50
2019-05-02T09:00:47.444Z,10.64
2019-05-02T09:06:12.226Z,10.42
2019-05-02T09:11:36.894Z,10.74
2019-05-02T09:17:08.609Z,10.60
2019-05-02T09:22:26.203Z,10.60
2019-05-02T09:27:52.471Z,10.88
2019-05-02T09:33:16.040Z,11.03
2019-05-02T09:38:39.868Z,10.86
2019-05-02T09:44:04.357Z,10.94
2019-05-02T09:49:28.275Z,11.18
2019-05-02T09:54:51.980Z,11.30
2019-05-02T10:00:39.171Z,11.27
2019-05-02T10:06:03.407Z,11.51
2019-05-02T10:11:28.965Z,11.29
2019-05-02T10:16:57.636Z,11.54
2019-05-02T10:22:19.683Z,11.43
2019-05-02T10:27:47.441Z,11.33
2019-05-02T10:33:09.291Z,11.46
2019-05-02T10:38:33.586Z,11.44
2019-05-02T10:43:59.521Z,11.51
2019-05-02T10:49:32.107Z,11.55
2019-05-02T10:54:56.718Z,11.71
2019-05-02T11:00:23.988Z,11.84
2019-05-02T11:05:52.795Z,11.54
2019-05-02T11:11:17.691Z,11.45
2019-05-02T11:16:52.465Z,11.45
2019-05-02T11:22:16.537Z,11.62
2019-05-02T11:27:41.882Z,11.36
2019-05-02T11:33:06.708Z,11.31
2019-05-02T11:38:31.267Z,11.45
2019-05-02T11:43:55.959Z,11.33
2019-05-02T11:49:22.594Z,11.74
2019-05-02T11:54:48.470Z,11.63
2019-05-02T12:00:12.415Z,11.66
2019-05-02T12:05:41.958Z,11.76
2019-05-02T12:11:08.413Z,11.88
2019-05-02T12:16:32.807Z,12.04
2019-05-02T12:21:57.309Z,11.92
2019-05-02T12:27:22.073Z,12.20
2019-05-02T12:32:46.962Z,12.27
2019-05-02T12:38:12.227Z,12.37
2019-05-02T12:43:36.671Z,12.10
2019-05-02T12:49:02.899Z,12.37
2019-05-02T12:54:26.840Z,12.34
2019-05-02T12:59:52.350Z,12.53
2019-05-02T13:05:17.003Z,12.32
2019-05-02T13:11:06.915Z,12.51
2019-05-02T13:16:33.518Z,12.40
2019-05-02T13:22:35.628Z,12.32
2019-05-02T13:28:02.008Z,12.53
2019-05-02T13:33:35.817Z,12.58
2019-05-02T13:39:01.755Z,12.54
2019-05-02T13:44:52.718Z,12.66
2019-05-02T13:50:17.818Z,12.59
2019-05-02T13:55:46.707Z,12.94
2019-05-02T14:01:11.736Z,12.81
2019-05-02T14:06:37.861Z,12.87
2019-05-02T14:12:06.699Z,13.12
2019-05-02T14:17:32.637Z,13.98
2019-05-02T14:22:56.960Z,13.82
2019-05-02T14:28:22.381Z,14.41
2019-05-02T14:34:05.299Z,13.83
2019-05-02T14:39:32.350Z,13.48
2019-05-02T14:45:08.944Z,13.23
2019-05-02T14:50:26.382Z,13.37
2019-05-02T14:55:48.580Z,13.27
2019-05-02T15:01:17.232Z,13.49
2019-05-02T15:06:45.447Z,13.83
2019-05-02T15:12:13.998Z,14.12
2019-05-02T15:17:36.273Z,13.52
2019-05-02T15:22:56.270Z,13.42
2019-05-02T15:28:19.956Z,13.30
2019-05-02T15:33:56.300Z,13.36
2019-05-02T15:44:46.842Z,13.22
2019-05-02T15:50:14.761Z,13.53
2019-05-02T15:55:39.344Z,13.69
2019-05-02T16:01:17.898Z,14.03
2019-05-02T16:06:41.984Z,13.85
2019-05-02T16:12:06.475Z,13.75
2019-05-02T16:17:30.881Z,13.54
2019-05-02T16:22:54.687Z,13.40
2019-05-02T16:28:20.506Z,13.29
2019-05-02T16:33:44.420Z,13.19
2019-05-02T16:39:10.081Z,13.23
2019-05-02T16:44:35.012Z,13.15
2019-05-02T16:50:02.256Z,13.18
2019-05-02T16:55:26.851Z,13.26
2019-05-02T17:00:52.662Z,13.31
2019-05-02T17:06:16.984Z,13.27
2019-05-02T17:11:43.270Z,13.29
2019-05-02T17:17:07.661Z,13.29
2019-05-02T17:22:32.876Z,13.19
2019-05-02T17:28:04.618Z,13.10
2019-05-02T17:33:23.042Z,13.04
2019-05-02T17:38:47.508Z,12.98
2019-05-02T17:44:12.962Z,12.93
2019-05-02T17:49:38.167Z,12.89
2019-05-02T17:55:03.206Z,12.83
2019-05-02T18:00:28.553Z,12.83
2019-05-02T18:05:52.980Z,12.51
2019-05-02T18:11:16.910Z,11.82
2019-05-02T18:16:41.994Z,11.55
2019-05-02T18:22:08.340Z,11.48
2019-05-02T18:27:31.791Z,11.68
2019-05-02T18:32:57.762Z,11.76
2019-05-02T18:38:22.406Z,11.78
2019-05-02T18:43:47.306Z,11.84
2019-05-02T18:49:12.334Z,11.87
2019-05-02T18:54:38.671Z,11.92
2019-05-02T19:00:02.069Z,12.00
2019-05-02T19:05:28.584Z,12.05
2019-05-02T19:11:05.294Z,12.01
2019-05-02T19:16:19.261Z,12.06
2019-05-02T19:21:44.641Z,12.07
2019-05-02T19:27:12.704Z,12.09
2019-05-02T19:32:36.162Z,12.16
2019-05-02T19:38:02.151Z,12.14
2019-05-02T19:43:25.608Z,12.13
2019-05-02T19:48:50.019Z,12.11
2019-05-02T19:54:15.858Z,12.09
2019-05-02T19:59:40.427Z,12.13
2019-05-02T20:05:04.540Z,12.09
2019-05-02T20:10:29.255Z,12.09
2019-05-02T20:16:04.482Z,12.03
2019-05-02T20:21:35.289Z,12.00
2019-05-02T20:26:59.168Z,12.06
2019-05-02T20:32:23.446Z,12.01
2019-05-02T20:37:47.105Z,12.03
2019-05-02T20:43:12.156Z,12.07
2019-05-02T20:48:36.875Z,12.09
2019-05-02T20:54:02.035Z,12.10
2019-05-02T20:59:26.507Z,11.90
2019-05-02T21:04:52.154Z,11.37
2019-05-02T21:10:27.873Z,10.76
2019-05-02T21:15:52.525Z,10.30
2019-05-02T21:21:18.598Z,10.03
2019-05-02T21:26:43.108Z,9.95
2019-05-02T21:32:07.087Z,9.93
2019-05-02T21:37:31.981Z,9.94
2019-05-02T21:42:55.811Z,9.97
2019-05-02T21:48:21.947Z,9.98
2019-05-02T21:53:56.070Z,9.98
2019-05-02T21:59:19.075Z,9.96
2019-05-02T22:04:43.129Z,9.88
2019-05-02T22:10:08.180Z,9.78
2019-05-02T22:15:33.232Z,9.64
2019-05-02T22:20:58.121Z,9.39
2019-05-02T22:26:22.107Z,8.99
2019-05-02T22:31:46.500Z,8.85
2019-05-02T22:37:12.524Z,8.82
2019-05-02T22:42:37.445Z,8.82
2019-05-02T22:48:02.594Z,8.83
2019-05-02T22:53:27.568Z,8.86
2019-05-02T22:58:51.971Z,8.88
2019-05-02T23:04:18.101Z,8.89
2019-05-02T23:09:43.676Z,8.89
2019-05-02T23:15:09.469Z,8.83
2019-05-02T23:20:34.300Z,8.78
2019-05-02T23:26:13.788Z,8.70
2019-05-02T23:31:37.914Z,8.72
2019-05-02T23:37:02.599Z,8.70
2019-05-02T23:42:26.571Z,8.61
2019-05-02T23:47:52.739Z,8.57
2019-05-02T23:53:17.626Z,8.49
2019-05-02T23:58:42.648Z,8.44
